Time;durP1;ratioP1;P1;durP2;ratioP2;P2;SDS_P1;SDS_P2;PMS_P1;PMS_P2;Temp;Humidity;BMP_temperature;BMP_pressure;BME280_temperature;BME280_humidity;BME280_pressure;Samples;Min_cycle;Max_cycle;Signal;HPM_P1;HPM_P2
2020/12/31 00:02:52;;;;;;;48.8;42.9;;;;;;;3.94;86.79492;97877.38;;;;
2020/12/31 00:12:51;;;;;;;61.8;47;;;;;;;3.92;86.48145;97874.17;;;;
2020/12/31 00:22:49;;;;;;;60.4;45.2;;;;;;;3.81;86.87891;97886.03;;;;
2020/12/31 00:32:47;;;;;;;57.7;46.8;;;;;;;3.75;87.31055;97883.7;;;;
2020/12/31 00:42:45;;;;;;;68.4;54;;;;;;;3.61;87.64746;97891.52;;;;
2020/12/31 00:52:43;;;;;;;63.4;46.5;;;;;;;3.59;87.83008;97903.53;;;;
2020/12/31 01:02:41;;;;;;;71.3;54.8;;;;;;;3.63;87.77051;97915.23;;;;
2020/12/31 01:12:39;;;;;;;64.8;58;;;;;;;3.71;87.41016;97901.31;;;;
2020/12/31 01:22:37;;;;;;;82.5;65.2;;;;;;;3.79;86.82031;97896.16;;;;
2020/12/31 01:32:36;;;;;;;94.3;69.3;;;;;;;3.67;86.88477;97901.08;;;;
2020/12/31 01:42:34;;;;;;;92.2;67.5;;;;;;;3.52;86.99805;97925.96;;;;
2020/12/31 01:52:32;;;;;;;55.9;42.1;;;;;;;3.43;87.02441;97932.17;;;;
2020/12/31 02:02:30;;;;;;;78.7;53.7;;;;;;;3.49;86.83594;97931.05;;;;
2020/12/31 02:12:28;;;;;;;70.7;52.9;;;;;;;3.4;86.38867;97952.14;;;;
2020/12/31 02:22:26;;;;;;;64.4;47.9;;;;;;;3.36;86.53418;97952.98;;;;
2020/12/31 02:32:24;;;;;;;64.6;48.6;;;;;;;3.36;86.40137;97952.98;;;;
2020/12/31 02:42:22;;;;;;;46.3;39.6;;;;;;;3.27;86.07422;97947.44;;;;
2020/12/31 02:52:20;;;;;;;56.5;48;;;;;;;3.16;87.33301;97969.09;;;;
2020/12/31 03:02:18;;;;;;;67.9;49.7;;;;;;;3.14;87.51953;97956.03;;;;
2020/12/31 03:12:17;;;;;;;70.7;51.1;;;;;;;3.08;87.71484;97961.66;;;;
2020/12/31 03:22:17;;;;;;;63.2;44.4;;;;;;;2.91;88.31152;97930.88;;;;
2020/12/31 03:32:12;;;;;;;71;44.2;;;;;;;3.02;87.79199;97943.05;;;;
2020/12/31 03:42:11;;;;;;;69.8;40.9;;;;;;;2.88;87.93066;97950.03;;;;
2020/12/31 03:52:08;;;;;;;57.7;39.7;;;;;;;2.92;87.73926;97945.76;;;;
2020/12/31 04:02:06;;;;;;;66.3;44.8;;;;;;;2.7;87.87012;97969.28;;;;
2020/12/31 04:12:04;;;;;;;44;31.5;;;;;;;2.75;87.4502;97968.45;;;;
2020/12/31 04:22:02;;;;;;;51.1;32.1;;;;;;;2.54;87.86133;97984.48;;;;
2020/12/31 04:32:00;;;;;;;36.4;26.6;;;;;;;2.52;87.97754;97975.19;;;;
2020/12/31 04:41:59;;;;;;;43;27.2;;;;;;;2.45;88.00684;97958.71;;;;
2020/12/31 04:51:57;;;;;;;45.5;35.4;;;;;;;2.31;88.09863;97976.3;;;;
2020/12/31 05:01:54;;;;;;;45.5;28.1;;;;;;;2.36;88.03223;97965.66;;;;
2020/12/31 05:11:52;;;;;;;34.1;25.3;;;;;;;2.27;88.02539;97978.69;;;;
2020/12/31 05:21:50;;;;;;;39.8;27.1;;;;;;;2.28;87.90527;97982.95;;;;
2020/12/31 05:31:48;;;;;;;33.1;22.6;;;;;;;2.27;88.23438;97991.98;;;;
2020/12/31 05:41:46;;;;;;;32.7;23.2;;;;;;;2.31;88.42969;97994.91;;;;
2020/12/31 05:51:45;;;;;;;32.1;20.1;;;;;;;2.29;88.53613;97994.39;;;;
2020/12/31 06:01:42;;;;;;;28;20.1;;;;;;;2.31;88.62793;97993.05;;;;
2020/12/31 06:11:40;;;;;;;24.8;20.6;;;;;;;2.4;88.48145;98001.26;;;;
2020/12/31 06:21:38;;;;;;;28.1;20.9;;;;;;;2.5;88.28027;98003.89;;;;
2020/12/31 06:31:36;;;;;;;40.3;24;;;;;;;2.61;87.94922;98007.33;;;;
2020/12/31 06:41:41;;;;;;;33.2;23.4;;;;;;;2.55;87.94922;98009.22;;;;
2020/12/31 06:51:32;;;;;;;31.8;23.5;;;;;;;2.44;87.99414;98000.46;;;;
2020/12/31 07:01:30;;;;;;;27.5;15.7;;;;;;;2.34;88.22754;98008.45;;;;
2020/12/31 07:11:32;;;;;;;28.2;19.3;;;;;;;2.27;88.19043;98015.11;;;;
2020/12/31 07:21:26;;;;;;;22.5;19.3;;;;;;;2.17;88.41309;98039.84;;;;
2020/12/31 07:31:43;;;;;;;29.9;21.1;;;;;;;2.28;88.1377;98043.3;;;;
2020/12/31 07:41:22;;;;;;;26.7;15.8;;;;;;;2.35;86.66309;98044.63;;;;
2020/12/31 07:51:22;;;;;;;34.1;19.1;;;;;;;2.42;86.70996;98045.16;;;;
2020/12/31 08:01:23;;;;;;;35.9;27.2;;;;;;;2.44;86.80176;98050.19;;;;
2020/12/31 08:11:17;;;;;;;27.4;20.2;;;;;;;2.68;86.05566;98048.55;;;;
2020/12/31 08:21:14;;;;;;;30.7;18.2;;;;;;;2.76;84.38965;98047.2;;;;
2020/12/31 08:31:11;;;;;;;33.7;19.6;;;;;;;2.72;84.36133;98059.45;;;;
2020/12/31 08:41:09;;;;;;;22.9;14.9;;;;;;;3.04;84.06055;98079.34;;;;
2020/12/31 08:51:07;;;;;;;20.1;15;;;;;;;3.21;82.58496;98083.53;;;;
2020/12/31 09:01:06;;;;;;;24.1;15.4;;;;;;;3.6;81.99512;98091.63;;;;
2020/12/31 09:11:04;;;;;;;25.4;19.1;;;;;;;3.75;79.96289;98087;;;;
2020/12/31 09:21:02;;;;;;;22.7;16.3;;;;;;;3.87;78.93066;98087.48;;;;
2020/12/31 09:31:00;;;;;;;17.8;15.6;;;;;;;3.9;79.70313;98084.25;;;;
2020/12/31 09:40:58;;;;;;;20.5;16.5;;;;;;;3.62;80.03809;98071.63;;;;
2020/12/31 09:50:56;;;;;;;28.5;18.4;;;;;;;3.57;80.38281;98070.87;;;;
2020/12/31 10:00:54;;;;;;;35.8;21.6;;;;;;;3.71;79.72168;98064.66;;;;
2020/12/31 10:10:52;;;;;;;29.3;19.1;;;;;;;3.53;79.53516;98066.09;;;;
2020/12/31 10:20:50;;;;;;;30.4;20.2;;;;;;;3.7;79.34277;98046.27;;;;
2020/12/31 10:30:48;;;;;;;21.6;18.3;;;;;;;3.89;77.85645;98044.53;;;;
2020/12/31 10:40:47;;;;;;;19.2;15.3;;;;;;;4;77.7207;98038.06;;;;
2020/12/31 10:50:45;;;;;;;21.4;14.8;;;;;;;3.93;77.23145;98034.92;;;;
2020/12/31 11:00:43;;;;;;;22.2;17.3;;;;;;;4.05;78.16309;98022.04;;;;
2020/12/31 11:10:41;;;;;;;18.6;16;;;;;;;3.92;77.19531;98009.35;;;;
2020/12/31 11:20:39;;;;;;;25.8;17.4;;;;;;;3.62;76.73145;97994.36;;;;
2020/12/31 11:30:39;;;;;;;15;11.6;;;;;;;3.55;77.81738;97985.88;;;;
2020/12/31 11:40:36;;;;;;;17;13.6;;;;;;;3.38;77.1543;97974.8;;;;
2020/12/31 11:50:34;;;;;;;20.4;14.3;;;;;;;3.58;76.43652;97966.67;;;;
2020/12/31 12:00:32;;;;;;;25.2;15.4;;;;;;;3.64;75.59277;97962.92;;;;
2020/12/31 12:10:30;;;;;;;20;15.5;;;;;;;3.58;77.41211;97960.55;;;;
2020/12/31 12:20:28;;;;;;;18.5;16;;;;;;;3.74;76.72949;97956.72;;;;
2020/12/31 12:30:27;;;;;;;24.8;15.5;;;;;;;3.68;76.85352;97950.61;;;;
2020/12/31 12:40:25;;;;;;;18.9;15;;;;;;;3.73;77.02832;97941.79;;;;
2020/12/31 12:50:23;;;;;;;21.2;14.6;;;;;;;3.88;76.26855;97931.81;;;;
2020/12/31 13:00:21;;;;;;;27.2;17.5;;;;;;;4.03;75.78418;97926.33;;;;
2020/12/31 13:10:20;;;;;;;25.6;17;;;;;;;4.15;75.28027;97935.83;;;;
2020/12/31 13:20:18;;;;;;;23.1;19.7;;;;;;;4.06;75.53125;97932.98;;;;
2020/12/31 13:30:19;;;;;;;25.5;19.7;;;;;;;4.27;75.10156;97934.35;;;;
2020/12/31 13:40:14;;;;;;;23.6;18.8;;;;;;;4.37;74.38477;97938.81;;;;
2020/12/31 13:50:12;;;;;;;20.8;17.8;;;;;;;4.31;74.20703;97937.25;;;;
2020/12/31 14:00:10;;;;;;;23.3;18.3;;;;;;;3.9;74.72656;97932.31;;;;
2020/12/31 14:10:08;;;;;;;25.6;20.4;;;;;;;3.6;75.65137;97940.56;;;;
2020/12/31 14:20:06;;;;;;;28.6;21.4;;;;;;;3.19;76.875;97936.58;;;;
2020/12/31 14:30:04;;;;;;;32.8;23.9;;;;;;;2.7;79.05859;97937.36;;;;
2020/12/31 14:40:02;;;;;;;36.8;30.3;;;;;;;2.2;80.10547;97940.16;;;;
2020/12/31 14:50:00;;;;;;;37.8;29.9;;;;;;;1.85;80.52637;97933.83;;;;
2020/12/31 14:59:58;;;;;;;31.9;26.3;;;;;;;1.44;81.53027;97938.34;;;;
2020/12/31 15:09:56;;;;;;;43.2;32.6;;;;;;;1.08;81.43848;97943.87;;;;
2020/12/31 15:19:54;;;;;;;36.8;30.6;;;;;;;0.68;81.94727;97947.97;;;;
2020/12/31 15:29:52;;;;;;;37.6;33.2;;;;;;;0.35;83.15918;97946.48;;;;
2020/12/31 15:39:49;;;;;;;38.6;30.3;;;;;;;0.07;83.94043;97944.19;;;;
2020/12/31 15:49:47;;;;;;;45.1;35.5;;;;;;;-0.15;83.97363;97946.18;;;;
2020/12/31 15:59:45;;;;;;;52.8;41.5;;;;;;;-0.4;84.79297;97965.31;;;;
2020/12/31 16:09:42;;;;;;;58.4;41.5;;;;;;;-0.6;85.07031;97955.35;;;;
2020/12/31 16:19:40;;;;;;;57.9;43.4;;;;;;;-0.77;85.49707;97954.66;;;;
2020/12/31 16:29:37;;;;;;;59.8;45.3;;;;;;;-0.88;86.51563;97968.83;;;;
2020/12/31 16:39:35;;;;;;;64.9;47.8;;;;;;;-0.86;86.87012;97966.72;;;;
2020/12/31 16:49:32;;;;;;;115;80.2;;;;;;;-0.75;88.46875;97964.98;;;;
2020/12/31 16:59:30;;;;;;;71.4;58.8;;;;;;;-0.53;87.69336;97976.31;;;;
2020/12/31 17:09:27;;;;;;;74.2;58.1;;;;;;;-0.43;87.7998;97978.25;;;;
2020/12/31 17:19:25;;;;;;;47.9;37.1;;;;;;;-0.34;88.4668;97982.83;;;;
2020/12/31 17:29:23;;;;;;;54.9;45;;;;;;;-0.21;88.13086;97971.03;;;;
2020/12/31 17:39:20;;;;;;;41.6;32.4;;;;;;;-0.23;88.23633;97987.16;;;;
2020/12/31 17:49:18;;;;;;;55.5;37.9;;;;;;;-0.13;88.05957;97975.84;;;;
2020/12/31 17:59:20;;;;;;;71.4;49.4;;;;;;;-0.06;87.4502;97969.28;;;;
2020/12/31 18:09:13;;;;;;;60.2;45.1;;;;;;;-0.02;87.16211;97970.38;;;;
2020/12/31 18:19:11;;;;;;;62.4;44.8;;;;;;;-0.05;87.44141;97968.23;;;;
2020/12/31 18:29:09;;;;;;;80.1;55.2;;;;;;;0.02;87.10352;97964.56;;;;
2020/12/31 18:39:06;;;;;;;111.5;76.2;;;;;;;0.04;87.18359;97959.8;;;;
2020/12/31 18:49:04;;;;;;;76.1;53.1;;;;;;;-0.16;88.07617;97958.62;;;;
2020/12/31 18:59:02;;;;;;;50.2;37.7;;;;;;;-0.11;88.70117;97973.76;;;;
2020/12/31 19:08:59;;;;;;;43.7;30;;;;;;;0.11;88.06543;97969.13;;;;
2020/12/31 19:18:57;;;;;;;33.7;28.5;;;;;;;0.17;87.99902;97972.63;;;;
2020/12/31 19:28:55;;;;;;;41.6;33.4;;;;;;;0.32;87.66992;97970.85;;;;
2020/12/31 19:38:53;;;;;;;46.5;35.1;;;;;;;0.43;87.39551;97963.75;;;;
2020/12/31 19:48:50;;;;;;;48.4;36.8;;;;;;;0.53;86.9541;97966.45;;;;
2020/12/31 19:58:48;;;;;;;54.2;41;;;;;;;0.51;87.29102;97957.97;;;;
2020/12/31 20:08:46;;;;;;;55.2;45;;;;;;;0.66;86.84961;97965.98;;;;
2020/12/31 20:18:44;;;;;;;64.3;44.6;;;;;;;0.8;86.39258;97966.33;;;;
2020/12/31 20:28:41;;;;;;;38.8;30.8;;;;;;;0.87;85.46289;97972.96;;;;
2020/12/31 20:38:39;;;;;;;38.7;29.3;;;;;;;0.75;85.30664;97976.91;;;;
2020/12/31 20:48:37;;;;;;;48.6;34.2;;;;;;;0.56;85.3877;97975.73;;;;
2020/12/31 20:58:35;;;;;;;49.3;33;;;;;;;0.61;85.68457;97979.23;;;;
2020/12/31 21:08:32;;;;;;;39;28.9;;;;;;;0.54;85.70508;97978.66;;;;
2020/12/31 21:18:30;;;;;;;49.4;35;;;;;;;0.56;85.79688;97981.84;;;;
2020/12/31 21:28:28;;;;;;;37.1;27.4;;;;;;;0.52;85.86426;97982.63;;;;
2020/12/31 21:38:26;;;;;;;39.3;30.6;;;;;;;0.54;85.26563;97976.02;;;;
2020/12/31 21:48:23;;;;;;;38.3;26.6;;;;;;;0.52;85.41406;97974.68;;;;
2020/12/31 21:58:21;;;;;;;51.3;33.1;;;;;;;0.48;85.81348;97967.25;;;;
2020/12/31 22:08:19;;;;;;;40.1;28.8;;;;;;;0.4;85.87402;97973.03;;;;
2020/12/31 22:18:19;;;;;;;44.9;33.2;;;;;;;0.3;86.46973;97962.38;;;;
2020/12/31 22:28:15;;;;;;;53.2;33.9;;;;;;;0.08;87.24805;97956.39;;;;
2020/12/31 22:38:12;;;;;;;41.7;34.1;;;;;;;0.04;87.69922;97949.2;;;;
2020/12/31 22:48:10;;;;;;;46;30.3;;;;;;;0.07;87.10156;97954.02;;;;
2020/12/31 22:58:08;;;;;;;35;27;;;;;;;0.1;86.86719;97951.66;;;;
2020/12/31 23:08:05;;;;;;;43.3;32.7;;;;;;;0.14;86.89648;97954.59;;;;
2020/12/31 23:18:03;;;;;;;39.6;30.6;;;;;;;0.07;86.90527;97949.49;;;;
2020/12/31 23:28:01;;;;;;;52.4;31.6;;;;;;;-0.31;87.79199;97950.55;;;;
2020/12/31 23:37:59;;;;;;;49.4;34.4;;;;;;;-0.43;88.33691;97957.08;;;;
2020/12/31 23:47:56;;;;;;;47.5;28.8;;;;;;;-0.48;88.60156;97949.08;;;;
2020/12/31 23:57:54;;;;;;;51.5;34.8;;;;;;;-0.23;87.26074;97944.8;;;;
